Time;durP1;ratioP1;P1;durP2;ratioP2;P2;SDS_P1;SDS_P2;PMS_P1;PMS_P2;Temp;Humidity;BMP_temperature;BMP_pressure;BME280_temperature;BME280_humidity;BME280_pressure;Samples;Min_cycle;Max_cycle;Signal;HPM_P1;HPM_P2
2021/07/20 00:02:37;;;;;;;3.80;2.30;;;16.50;99.90;;;;;;5041760;28;20213;-87
2021/07/20 00:05:05;;;;;;;5.77;2.97;;;16.50;99.90;;;;;;5053283;28;20225;-87
2021/07/20 00:07:31;;;;;;;4.60;2.33;;;16.50;99.90;;;;;;5049611;28;20267;-85
2021/07/20 00:09:57;;;;;;;5.77;2.20;;;16.40;99.90;;;;;;5049872;28;20237;-84
2021/07/20 00:12:23;;;;;;;5.73;3.17;;;16.40;99.90;;;;;;5051649;28;20274;-85
2021/07/20 00:14:49;;;;;;;4.03;1.97;;;16.40;99.90;;;;;;5048864;28;20589;-87
2021/07/20 00:17:15;;;;;;;6.13;2.80;;;16.50;99.90;;;;;;5033639;28;20542;-87
2021/07/20 00:19:41;;;;;;;3.47;1.87;;;16.50;99.90;;;;;;5048340;28;20312;-86
2021/07/20 00:22:06;;;;;;;7.77;3.27;;;16.50;99.90;;;;;;5048051;28;20564;-85
2021/07/20 00:24:32;;;;;;;2.97;1.90;;;16.50;99.90;;;;;;5038287;28;20694;-85
2021/07/20 00:26:58;;;;;;;5.27;2.17;;;16.40;99.90;;;;;;5047392;28;20305;-85
2021/07/20 00:29:24;;;;;;;3.33;2.17;;;16.40;99.90;;;;;;5032419;28;20210;-87
2021/07/20 00:31:49;;;;;;;5.07;2.17;;;16.40;99.90;;;;;;5030384;28;20270;-86
2021/07/20 00:34:15;;;;;;;3.73;2.10;;;16.40;99.90;;;;;;5023670;28;20230;-84
2021/07/20 00:36:41;;;;;;;5.77;2.63;;;16.40;99.90;;;;;;5018097;28;20241;-88
2021/07/20 00:39:07;;;;;;;3.37;2.13;;;16.30;99.90;;;;;;5056134;28;20274;-83
2021/07/20 00:41:33;;;;;;;4.63;2.07;;;16.30;99.90;;;;;;5017549;28;20190;-84
2021/07/20 00:43:58;;;;;;;3.80;2.23;;;16.30;99.90;;;;;;5043772;28;20770;-87
2021/07/20 00:46:24;;;;;;;5.03;2.67;;;16.40;99.90;;;;;;5035863;28;20221;-86
2021/07/20 00:48:50;;;;;;;8.93;2.57;;;16.40;99.90;;;;;;5042750;28;21171;-87
2021/07/20 00:51:15;;;;;;;3.33;2.23;;;16.50;99.90;;;;;;5021548;28;20225;-84
2021/07/20 00:53:41;;;;;;;4.63;1.90;;;16.50;99.90;;;;;;5006223;28;20193;-84
2021/07/20 00:56:08;;;;;;;4.00;2.13;;;16.50;99.90;;;;;;5039800;28;20222;-84
2021/07/20 00:58:34;;;;;;;4.33;2.60;;;16.50;99.90;;;;;;5032327;28;20238;-84
2021/07/20 01:01:00;;;;;;;3.83;2.30;;;16.60;99.90;;;;;;5051063;28;20225;-84
2021/07/20 01:03:25;;;;;;;3.70;2.23;;;16.60;99.90;;;;;;5043423;28;20236;-86
2021/07/20 01:05:52;;;;;;;4.23;2.67;;;16.50;99.90;;;;;;5049230;28;20197;-83
2021/07/20 01:08:18;;;;;;;5.10;2.77;;;16.40;99.90;;;;;;5040764;28;20194;-86
2021/07/20 01:10:44;;;;;;;4.23;2.50;;;16.50;99.90;;;;;;5022373;28;20218;-84
2021/07/20 01:13:12;;;;;;;6.17;2.80;;;16.50;99.90;;;;;;5040484;28;20210;-84
2021/07/20 01:15:39;;;;;;;7.70;3.03;;;16.40;99.90;;;;;;5033281;28;20210;-85
2021/07/20 01:18:06;;;;;;;7.47;3.50;;;16.40;99.90;;;;;;5039465;28;20336;-85
2021/07/20 01:20:32;;;;;;;4.47;3.00;;;16.40;99.90;;;;;;5041753;28;20306;-84
2021/07/20 01:23:23;;;;;;;4.13;2.67;;;16.30;99.90;;;;;;5039145;28;20256;-85
2021/07/20 01:25:50;;;;;;;6.33;2.97;;;16.30;99.90;;;;;;5032044;28;20780;-84
2021/07/20 01:28:20;;;;;;;5.47;2.63;;;16.30;99.90;;;;;;5039849;28;20233;-85
2021/07/20 01:30:50;;;;;;;3.97;2.07;;;16.30;99.90;;;;;;5040405;28;20316;-86
2021/07/20 01:33:17;;;;;;;5.90;3.63;;;16.40;99.90;;;;;;5039444;28;20210;-84
2021/07/20 01:35:46;;;;;;;6.10;3.30;;;16.40;99.90;;;;;;5015406;28;20193;-86
2021/07/20 01:38:13;;;;;;;4.70;3.93;;;16.40;99.90;;;;;;5041049;28;20174;-85
2021/07/20 01:40:40;;;;;;;3.77;2.63;;;16.40;99.90;;;;;;5038371;28;20508;-83
2021/07/20 01:43:07;;;;;;;5.20;3.17;;;16.40;99.90;;;;;;5040120;28;20272;-84
2021/07/20 01:45:35;;;;;;;8.63;3.90;;;16.40;99.90;;;;;;5033269;28;21300;-88
2021/07/20 01:48:03;;;;;;;5.30;2.80;;;16.40;99.90;;;;;;5039396;28;20227;-86
2021/07/20 01:50:30;;;;;;;7.37;3.23;;;16.50;99.90;;;;;;5040069;28;20178;-84
2021/07/20 01:52:57;;;;;;;7.60;3.20;;;16.40;99.90;;;;;;5031271;28;20242;-84
2021/07/20 01:55:25;;;;;;;5.23;2.80;;;16.40;99.90;;;;;;5038501;28;20248;-87
2021/07/20 01:57:51;;;;;;;6.20;3.30;;;16.40;99.90;;;;;;5039545;28;20788;-87
2021/07/20 02:00:18;;;;;;;5.43;2.27;;;16.40;99.90;;;;;;5023417;28;20238;-85
2021/07/20 02:03:16;;;;;;;5.47;2.70;;;16.40;99.90;;;;;;5042819;28;20661;-84
2021/07/20 02:08:32;;;;;;;5.83;2.87;;;16.50;99.90;;;;;;5044529;28;20197;-84
2021/07/20 02:11:06;;;;;;;7.80;3.23;;;16.50;99.90;;;;;;5042838;28;20249;-87
2021/07/20 02:13:41;;;;;;;7.40;3.23;;;16.50;99.90;;;;;;5042178;28;20219;-84
2021/07/20 02:16:11;;;;;;;7.73;3.43;;;16.60;99.90;;;;;;5043108;28;20332;-86
2021/07/20 02:18:40;;;;;;;5.40;3.03;;;16.60;99.90;;;;;;5043477;28;20299;-85
2021/07/20 02:21:08;;;;;;;4.67;3.53;;;16.70;99.90;;;;;;5041218;28;20237;-84
2021/07/20 02:23:34;;;;;;;6.03;3.67;;;16.70;99.90;;;;;;5036673;28;20213;-86
2021/07/20 02:26:01;;;;;;;4.77;3.13;;;16.70;99.90;;;;;;5052658;28;20233;-84
2021/07/20 02:28:28;;;;;;;6.07;3.77;;;16.70;99.90;;;;;;5052559;28;20602;-84
2021/07/20 02:30:57;;;;;;;8.33;3.27;;;16.70;99.90;;;;;;5034421;28;20363;-88
2021/07/20 02:33:23;;;;;;;8.47;4.00;;;16.70;99.90;;;;;;5054234;28;20320;-89
2021/07/20 02:35:50;;;;;;;6.53;3.83;;;16.70;99.90;;;;;;5067666;28;20197;-84
2021/07/20 02:38:21;;;;;;;4.83;2.57;;;16.70;99.90;;;;;;5052696;28;20193;-84
2021/07/20 02:40:49;;;;;;;7.10;3.60;;;16.70;99.90;;;;;;5035385;28;20292;-84
2021/07/20 02:43:17;;;;;;;6.13;3.53;;;16.70;99.90;;;;;;5050110;28;20226;-87
2021/07/20 02:45:44;;;;;;;8.33;3.20;;;16.70;99.90;;;;;;5045850;28;20255;-87
2021/07/20 02:48:11;;;;;;;5.20;3.10;;;16.70;99.90;;;;;;5045757;28;20266;-85
2021/07/20 02:50:36;;;;;;;4.87;3.23;;;16.70;99.90;;;;;;5051880;28;20200;-85
2021/07/20 02:53:04;;;;;;;5.53;2.80;;;16.60;99.90;;;;;;5026605;28;20194;-86
2021/07/20 02:55:31;;;;;;;5.20;3.20;;;16.60;99.90;;;;;;5043886;28;20214;-85
2021/07/20 02:57:59;;;;;;;7.87;4.03;;;16.60;99.90;;;;;;5050062;28;20249;-85
2021/07/20 03:00:26;;;;;;;6.50;2.80;;;16.60;99.90;;;;;;5053516;28;20273;-86
2021/07/20 03:02:53;;;;;;;8.33;3.97;;;16.60;99.90;;;;;;5033608;28;20551;-85
2021/07/20 03:05:19;;;;;;;7.10;3.50;;;16.50;99.90;;;;;;5031955;28;20660;-85
2021/07/20 03:07:52;;;;;;;5.13;3.33;;;16.50;99.90;;;;;;5033223;28;20233;-84
2021/07/20 03:10:21;;;;;;;5.97;3.27;;;16.50;99.90;;;;;;5045846;28;20218;-84
2021/07/20 03:12:48;;;;;;;5.10;3.10;;;16.60;99.90;;;;;;5052068;28;20305;-84
2021/07/20 03:15:15;;;;;;;5.23;2.20;;;16.60;99.90;;;;;;5051091;28;20274;-85
2021/07/20 03:17:42;;;;;;;5.87;3.10;;;16.60;99.90;;;;;;5017490;28;20193;-85
2021/07/20 03:20:11;;;;;;;3.93;2.50;;;16.60;99.90;;;;;;5027266;28;20227;-86
2021/07/20 03:22:38;;;;;;;6.27;2.70;;;16.50;99.90;;;;;;5045280;28;20221;-88
2021/07/20 03:25:05;;;;;;;8.07;3.93;;;16.50;99.90;;;;;;5029978;28;20309;-86
2021/07/20 03:27:34;;;;;;;7.27;3.90;;;16.40;99.90;;;;;;5054874;28;20222;-89
2021/07/20 03:30:02;;;;;;;4.63;2.70;;;16.40;99.90;;;;;;5046356;28;20225;-85
2021/07/20 03:32:31;;;;;;;4.63;3.10;;;16.40;99.90;;;;;;5034759;28;20301;-89
2021/07/20 03:34:59;;;;;;;7.27;2.97;;;16.30;99.90;;;;;;5051089;28;20256;-84
2021/07/20 03:37:25;;;;;;;6.03;2.90;;;16.20;99.90;;;;;;5033606;28;20209;-85
2021/07/20 03:39:53;;;;;;;5.23;2.70;;;16.20;99.90;;;;;;5029293;28;20242;-86
2021/07/20 03:42:21;;;;;;;5.10;2.53;;;16.20;99.90;;;;;;5037979;28;20291;-84
2021/07/20 03:44:48;;;;;;;4.53;2.60;;;16.20;99.90;;;;;;5050979;28;20251;-86
2021/07/20 03:47:17;;;;;;;5.23;3.30;;;16.10;99.90;;;;;;5033549;28;20693;-87
2021/07/20 03:49:44;;;;;;;5.60;2.30;;;16.10;99.90;;;;;;5050199;28;20217;-86
2021/07/20 03:52:12;;;;;;;6.13;3.57;;;16.00;99.90;;;;;;5037967;28;20229;-84
2021/07/20 03:54:39;;;;;;;7.00;2.93;;;16.10;99.90;;;;;;5011919;28;20313;-84
2021/07/20 03:57:06;;;;;;;4.93;2.77;;;16.10;99.90;;;;;;5016860;28;20890;-87
2021/07/20 03:59:34;;;;;;;5.83;3.27;;;16.10;99.90;;;;;;5061009;28;20213;-83
2021/07/20 04:02:02;;;;;;;4.57;2.13;;;16.10;99.90;;;;;;5041064;28;20300;-83
2021/07/20 04:04:37;;;;;;;7.00;2.53;;;16.10;99.90;;;;;;5041000;28;20253;-83
2021/07/20 04:07:06;;;;;;;7.83;3.70;;;16.10;99.90;;;;;;5040463;28;20296;-84
2021/07/20 04:09:32;;;;;;;3.97;2.17;;;16.20;99.90;;;;;;5029156;28;20254;-85
2021/07/20 04:11:59;;;;;;;5.07;3.33;;;16.30;99.90;;;;;;5042065;28;20244;-86
2021/07/20 04:14:25;;;;;;;6.97;2.60;;;16.30;99.90;;;;;;4989274;28;21158;-83
2021/07/20 04:16:51;;;;;;;5.83;3.00;;;16.30;99.90;;;;;;5041924;28;20296;-86
2021/07/20 04:19:17;;;;;;;6.07;3.47;;;16.40;99.90;;;;;;5041036;28;20586;-85
2021/07/20 04:21:44;;;;;;;6.63;2.83;;;16.40;99.90;;;;;;5041846;28;20228;-88
2021/07/20 04:24:11;;;;;;;7.00;3.80;;;16.40;99.90;;;;;;5023613;28;20289;-86
2021/07/20 04:26:40;;;;;;;6.10;2.80;;;16.60;99.90;;;;;;5042218;28;20202;-83
2021/07/20 04:29:06;;;;;;;5.83;2.43;;;16.60;99.90;;;;;;5039963;28;20230;-84
2021/07/20 04:31:33;;;;;;;7.67;3.57;;;16.70;99.90;;;;;;5039080;28;20331;-86
2021/07/20 04:33:59;;;;;;;4.63;2.97;;;16.80;99.90;;;;;;5040080;28;20229;-84
2021/07/20 04:36:25;;;;;;;7.70;3.23;;;16.80;99.90;;;;;;5039743;28;21291;-85
2021/07/20 04:38:52;;;;;;;4.00;2.37;;;16.90;99.90;;;;;;5040744;28;20214;-85
2021/07/20 04:41:20;;;;;;;7.53;2.90;;;17.00;99.90;;;;;;5040325;28;20240;-84
2021/07/20 04:43:47;;;;;;;5.50;2.87;;;17.00;99.90;;;;;;5030376;28;20229;-84
2021/07/20 04:46:15;;;;;;;6.13;2.70;;;17.10;99.90;;;;;;5046207;28;20223;-86
2021/07/20 04:48:41;;;;;;;6.43;3.30;;;17.20;99.90;;;;;;5043192;28;20221;-82
2021/07/20 04:51:08;;;;;;;5.97;2.50;;;17.30;99.90;;;;;;5054369;28;20197;-83
2021/07/20 04:53:40;;;;;;;6.70;3.00;;;17.50;99.90;;;;;;5023418;28;20479;-82
2021/07/20 04:56:06;;;;;;;5.33;2.70;;;17.60;99.90;;;;;;5038220;28;21428;-85
2021/07/20 04:58:33;;;;;;;5.93;2.57;;;17.70;99.90;;;;;;5038594;28;20655;-86
2021/07/20 05:00:59;;;;;;;6.53;2.77;;;17.70;99.90;;;;;;5029296;28;20724;-84
2021/07/20 05:03:27;;;;;;;4.73;2.80;;;17.70;99.90;;;;;;5058313;28;20949;-83
2021/07/20 05:05:56;;;;;;;6.90;2.50;;;17.90;99.90;;;;;;5060461;28;20709;-85
2021/07/20 05:08:22;;;;;;;5.17;2.80;;;17.90;99.90;;;;;;5060542;28;20213;-83
2021/07/20 05:10:50;;;;;;;5.10;3.20;;;17.90;99.90;;;;;;5034590;28;20213;-83
2021/07/20 05:13:21;;;;;;;5.07;2.57;;;18.00;99.90;;;;;;5052366;28;20213;-84
2021/07/20 05:15:50;;;;;;;3.67;2.50;;;18.20;99.90;;;;;;5053215;28;20252;-87
2021/07/20 05:18:17;;;;;;;6.90;2.97;;;18.30;99.90;;;;;;5046429;28;21208;-83
2021/07/20 05:20:44;;;;;;;5.50;2.53;;;18.30;99.90;;;;;;5026585;28;20193;-81
2021/07/20 05:23:18;;;;;;;6.07;3.43;;;18.50;99.90;;;;;;5027161;28;20227;-83
2021/07/20 05:25:47;;;;;;;6.10;3.10;;;18.80;99.90;;;;;;5027414;28;20210;-83
2021/07/20 05:28:14;;;;;;;6.40;3.43;;;19.40;99.90;;;;;;5030553;28;20225;-82
2021/07/20 05:30:41;;;;;;;4.67;3.20;;;19.80;99.90;;;;;;5026929;28;20210;-82
2021/07/20 05:33:07;;;;;;;4.97;3.03;;;21.10;99.90;;;;;;5036476;28;21049;-83
2021/07/20 05:35:34;;;;;;;4.70;2.63;;;21.70;99.90;;;;;;5020471;28;20236;-84
2021/07/20 05:38:00;;;;;;;5.77;2.83;;;21.40;99.90;;;;;;5044674;28;20308;-86
2021/07/20 05:40:27;;;;;;;5.63;2.80;;;21.20;99.90;;;;;;5038170;28;20237;-83
2021/07/20 05:42:55;;;;;;;8.30;3.43;;;21.90;99.90;;;;;;5032994;28;20230;-86
2021/07/20 05:45:21;;;;;;;4.30;2.70;;;22.60;99.90;;;;;;5047487;28;20244;-87
2021/07/20 05:47:49;;;;;;;4.63;2.87;;;24.90;99.90;;;;;;5048688;28;20193;-82
2021/07/20 05:50:17;;;;;;;4.20;3.10;;;27.60;99.90;;;;;;5048749;28;20289;-82
2021/07/20 05:52:46;;;;;;;7.33;3.60;;;29.50;99.90;;;;;;5030669;28;20267;-84
2021/07/20 05:55:13;;;;;;;5.53;3.00;;;31.00;99.50;;;;;;5043790;28;20249;-83
2021/07/20 05:57:40;;;;;;;3.90;2.40;;;32.00;98.30;;;;;;5017577;28;20285;-83
2021/07/20 06:00:08;;;;;;;4.43;2.65;;;32.70;97.10;;;;;;5057455;28;20209;-84
2021/07/20 06:02:36;;;;;;;4.10;2.83;;;32.90;95.90;;;;;;5056096;28;21146;-83
2021/07/20 06:05:03;;;;;;;5.55;3.13;;;32.20;95.40;;;;;;5054341;28;20315;-82
2021/07/20 06:07:30;;;;;;;5.22;2.47;;;32.20;95.60;;;;;;5044907;28;20232;-83
2021/07/20 06:09:57;;;;;;;5.45;3.13;;;32.40;95.00;;;;;;5055787;28;20312;-83
2021/07/20 06:12:24;;;;;;;4.53;2.53;;;32.50;94.80;;;;;;5011979;28;20613;-82
2021/07/20 06:14:50;;;;;;;3.40;2.58;;;32.60;94.60;;;;;;5025849;28;20202;-83
2021/07/20 06:17:20;;;;;;;6.05;2.63;;;32.40;93.60;;;;;;5026584;28;20217;-82
2021/07/20 06:19:45;;;;;;;5.25;2.70;;;32.20;94.20;;;;;;5027739;28;20312;-82
2021/07/20 06:22:12;;;;;;;4.18;2.47;;;32.30;93.80;;;;;;5033835;28;20283;-83
2021/07/20 06:24:44;;;;;;;5.25;2.50;;;32.50;94.30;;;;;;5026799;28;20234;-84
2021/07/20 06:27:14;;;;;;;5.18;2.65;;;33.10;93.80;;;;;;5042099;28;20251;-86
2021/07/20 06:29:43;;;;;;;4.28;2.40;;;33.10;93.20;;;;;;5026588;28;20794;-86
2021/07/20 06:32:10;;;;;;;2.75;2.20;;;32.60;93.60;;;;;;5044202;28;20218;-83
2021/07/20 06:34:38;;;;;;;4.90;3.17;;;33.00;92.20;;;;;;5046660;28;20221;-86
2021/07/20 06:37:05;;;;;;;2.53;2.20;;;32.70;93.30;;;;;;5059317;28;20380;-86
2021/07/20 06:39:32;;;;;;;3.80;2.42;;;32.80;92.50;;;;;;5028068;28;20284;-87
2021/07/20 06:42:00;;;;;;;3.70;2.63;;;32.30;93.70;;;;;;5054662;28;20225;-86
2021/07/20 06:44:28;;;;;;;5.65;2.60;;;32.20;93.10;;;;;;5044608;28;20221;-85
2021/07/20 06:46:54;;;;;;;3.55;2.38;;;32.40;92.60;;;;;;5040727;28;20730;-87
2021/07/20 06:49:21;;;;;;;2.95;2.30;;;32.20;93.60;;;;;;5033316;28;20234;-85
2021/07/20 06:51:47;;;;;;;3.47;1.90;;;32.70;92.90;;;;;;5038602;28;20316;-87
2021/07/20 06:54:14;;;;;;;3.22;2.38;;;33.10;92.00;;;;;;5042098;28;20202;-86
2021/07/20 06:56:45;;;;;;;3.35;2.33;;;32.70;93.00;;;;;;5040073;28;20197;-86
2021/07/20 06:59:13;;;;;;;5.25;2.60;;;32.70;93.10;;;;;;5074906;28;20232;-85
2021/07/20 07:01:41;;;;;;;3.53;2.50;;;32.70;92.30;;;;;;5048903;28;20214;-85
2021/07/20 07:04:35;;;;;;;4.22;2.42;;;31.80;92.80;;;;;;5041476;28;20253;-88
2021/07/20 07:07:02;;;;;;;2.25;2.05;;;30.50;93.40;;;;;;5036453;28;20287;-85
2021/07/20 07:09:30;;;;;;;2.80;2.30;;;31.50;92.90;;;;;;5002364;28;20283;-85
2021/07/20 07:11:58;;;;;;;3.05;1.85;;;32.10;93.00;;;;;;5042546;28;20201;-88
2021/07/20 07:14:24;;;;;;;2.92;2.03;;;32.00;92.50;;;;;;5041462;28;20637;-86
2021/07/20 07:16:53;;;;;;;1.92;1.60;;;32.80;91.60;;;;;;5024499;28;20222;-85
2021/07/20 07:19:20;;;;;;;3.40;2.08;;;32.80;92.60;;;;;;5039785;28;20237;-86
2021/07/20 07:21:48;;;;;;;2.67;1.88;;;32.60;92.60;;;;;;5041483;28;21110;-88
2021/07/20 07:24:19;;;;;;;2.80;2.25;;;30.00;92.10;;;;;;5042505;28;20272;-84
2021/07/20 07:26:48;;;;;;;2.95;2.28;;;29.80;93.60;;;;;;5042267;28;20189;-85
2021/07/20 07:29:16;;;;;;;3.33;2.03;;;28.90;93.20;;;;;;5039708;28;20229;-85
2021/07/20 07:31:49;;;;;;;3.47;2.38;;;30.40;94.00;;;;;;5041639;28;20222;-85
2021/07/20 07:34:16;;;;;;;4.70;2.20;;;32.00;93.00;;;;;;5008343;28;20229;-85
2021/07/20 07:36:45;;;;;;;3.03;2.25;;;33.20;91.40;;;;;;5040943;28;20217;-85
2021/07/20 07:39:13;;;;;;;2.88;2.03;;;34.10;90.50;;;;;;5040773;28;20221;-85
2021/07/20 07:41:39;;;;;;;3.42;2.22;;;33.40;91.10;;;;;;5040286;28;20204;-86
2021/07/20 07:44:11;;;;;;;3.75;2.17;;;33.50;90.30;;;;;;5035847;28;20224;-85
2021/07/20 07:46:40;;;;;;;2.08;1.80;;;33.20;90.80;;;;;;5038727;28;20206;-85
2021/07/20 07:49:08;;;;;;;3.92;2.35;;;33.00;90.60;;;;;;5038749;28;20229;-86
2021/07/20 07:51:33;;;;;;;3.05;1.77;;;32.80;89.90;;;;;;5056967;28;20249;-86
2021/07/20 07:53:59;;;;;;;3.33;1.77;;;32.70;91.00;;;;;;5024408;28;20285;-85
2021/07/20 07:56:29;;;;;;;2.78;1.83;;;33.40;88.60;;;;;;5023655;28;20233;-86
2021/07/20 07:58:57;;;;;;;3.08;2.03;;;33.50;88.30;;;;;;5022856;28;20364;-86
2021/07/20 08:01:25;;;;;;;4.97;2.60;;;32.80;90.40;;;;;;5039670;28;20213;-86
2021/07/20 08:03:54;;;;;;;4.68;2.10;;;32.50;90.20;;;;;;5035906;28;20311;-85
2021/07/20 08:06:21;;;;;;;3.58;2.20;;;32.30;90.20;;;;;;5014847;28;20366;-87
2021/07/20 08:08:53;;;;;;;3.10;2.20;;;32.10;91.20;;;;;;5036075;28;20795;-86
2021/07/20 08:11:18;;;;;;;3.88;2.10;;;32.40;91.50;;;;;;5056970;28;20209;-85
2021/07/20 08:13:45;;;;;;;3.35;1.88;;;33.50;90.30;;;;;;5040479;28;20300;-88
2021/07/20 08:16:13;;;;;;;3.80;2.03;;;32.10;88.00;;;;;;5023571;28;20213;-89
2021/07/20 08:18:40;;;;;;;2.95;2.10;;;31.20;91.10;;;;;;5041022;28;20549;-89
2021/07/20 08:21:07;;;;;;;3.33;2.22;;;31.00;90.60;;;;;;5041732;28;20692;-85
2021/07/20 08:23:35;;;;;;;2.78;1.70;;;30.80;92.20;;;;;;5048621;28;20186;-89
2021/07/20 08:26:12;;;;;;;2.20;1.52;;;31.50;93.10;;;;;;5038777;28;20234;-85
2021/07/20 08:28:45;;;;;;;4.60;2.00;;;31.40;91.30;;;;;;5031827;28;20240;-85
2021/07/20 08:31:13;;;;;;;3.85;2.17;;;29.80;93.10;;;;;;5041349;28;20225;-86
2021/07/20 08:33:42;;;;;;;3.35;2.17;;;29.60;93.30;;;;;;5039238;28;20330;-88
2021/07/20 08:36:11;;;;;;;2.63;1.95;;;28.90;93.00;;;;;;5036267;28;20189;-86
2021/07/20 08:38:39;;;;;;;3.40;1.83;;;29.60;94.00;;;;;;5040464;28;20255;-86
2021/07/20 08:41:13;;;;;;;3.22;2.20;;;31.30;93.40;;;;;;5032135;28;20307;-88
2021/07/20 08:44:06;;;;;;;3.53;2.25;;;31.40;92.90;;;;;;5045908;28;20255;-85
2021/07/20 08:46:44;;;;;;;2.63;1.95;;;30.90;92.20;;;;;;5048655;28;20342;-85
2021/07/20 08:49:29;;;;;;;2.35;1.90;;;29.60;92.80;;;;;;5039738;28;20337;-88
2021/07/20 08:52:03;;;;;;;4.40;2.25;;;29.60;93.50;;;;;;5040345;28;20218;-86
2021/07/20 08:54:30;;;;;;;2.45;1.98;;;30.00;92.20;;;;;;5042570;28;20282;-92
2021/07/20 08:57:00;;;;;;;3.47;1.77;;;30.30;92.80;;;;;;5041202;28;20186;-86
2021/07/20 08:59:38;;;;;;;2.58;1.83;;;30.70;92.40;;;;;;5028799;28;20260;-86
2021/07/20 09:02:33;;;;;;;2.85;1.63;;;30.90;91.60;;;;;;5073898;28;20241;-92
2021/07/20 09:05:18;;;;;;;2.38;2.13;;;29.60;92.90;;;;;;5036555;28;21386;-88
2021/07/20 09:08:03;;;;;;;2.25;1.70;;;30.10;91.30;;;;;;5030065;28;20217;-86
2021/07/20 09:10:38;;;;;;;4.68;2.70;;;31.30;92.00;;;;;;5039142;28;20303;-88
2021/07/20 09:13:10;;;;;;;2.20;2.00;;;32.00;91.10;;;;;;5040053;28;20213;-87
2021/07/20 09:15:42;;;;;;;4.55;2.38;;;30.70;91.80;;;;;;5053473;28;20244;-91
2021/07/20 09:18:20;;;;;;;2.15;1.90;;;29.00;92.70;;;;;;5053162;28;20272;-92
2021/07/20 09:20:50;;;;;;;3.25;2.40;;;29.40;92.70;;;;;;5039401;28;20196;-88
2021/07/20 09:23:43;;;;;;;3.17;2.22;;;29.70;93.60;;;;;;5039632;28;20205;-88
2021/07/20 09:26:14;;;;;;;4.15;2.40;;;30.30;93.40;;;;;;5039535;28;20316;-88
2021/07/20 09:29:00;;;;;;;3.60;2.20;;;30.20;92.90;;;;;;5041020;28;20236;-90
2021/07/20 09:31:46;;;;;;;2.90;2.45;;;30.90;92.10;;;;;;5038602;28;20217;-87
2021/07/20 09:34:25;;;;;;;3.00;2.08;;;31.10;92.00;;;;;;5037684;28;20257;-87
2021/07/20 09:37:04;;;;;;;3.72;2.35;;;30.20;91.90;;;;;;5032161;28;20220;-87
2021/07/20 09:39:36;;;;;;;4.00;2.55;;;30.00;93.70;;;;;;5023539;28;20336;-89
2021/07/20 09:42:32;;;;;;;2.95;2.25;;;30.60;93.40;;;;;;5034184;28;20762;-87
2021/07/20 09:45:19;;;;;;;3.60;2.42;;;31.30;91.40;;;;;;5043494;28;20276;-91
2021/07/20 09:47:58;;;;;;;2.92;2.15;;;31.30;92.10;;;;;;5037402;28;20221;-90
2021/07/20 09:50:26;;;;;;;4.40;2.40;;;30.50;91.60;;;;;;5046612;28;20226;-88
2021/07/20 09:52:54;;;;;;;3.28;2.33;;;29.90;92.60;;;;;;5031756;28;20228;-88
2021/07/20 09:55:32;;;;;;;4.03;2.00;;;29.50;92.20;;;;;;5046157;28;20267;-87
2021/07/20 09:58:13;;;;;;;3.05;2.33;;;29.80;93.20;;;;;;5052589;28;20255;-87
2021/07/20 10:01:02;;;;;;;4.05;2.58;;;30.30;94.10;;;;;;5038701;28;20392;-88
2021/07/20 10:03:45;;;;;;;4.28;2.28;;;31.40;92.40;;;;;;5030363;28;20221;-87
2021/07/20 10:06:37;;;;;;;3.85;2.55;;;31.30;92.00;;;;;;5035097;28;20195;-86
2021/07/20 10:09:29;;;;;;;4.25;2.70;;;29.40;94.30;;;;;;5039157;28;20281;-88
2021/07/20 10:12:00;;;;;;;3.70;2.20;;;30.00;94.20;;;;;;5059061;28;20209;-88
2021/07/20 10:14:56;;;;;;;3.70;2.13;;;30.40;92.50;;;;;;5039455;28;20214;-88
2021/07/20 10:18:00;;;;;;;1.77;1.67;;;30.30;93.10;;;;;;5048872;28;20256;-86
2021/07/20 10:20:38;;;;;;;2.80;2.00;;;30.10;93.70;;;;;;5038989;28;20279;-91
2021/07/20 10:23:08;;;;;;;2.97;2.15;;;30.30;94.00;;;;;;5041964;28;20275;-86
2021/07/20 10:26:14;;;;;;;3.45;1.88;;;29.30;94.70;;;;;;5038964;28;20220;-87
2021/07/20 10:28:58;;;;;;;3.55;2.22;;;29.60;94.90;;;;;;5058256;28;20221;-87
2021/07/20 10:31:38;;;;;;;3.30;2.08;;;28.90;95.80;;;;;;5045014;28;20220;-85
2021/07/20 10:34:12;;;;;;;3.33;1.92;;;28.60;95.50;;;;;;5054972;28;20309;-86
2021/07/20 10:36:56;;;;;;;2.72;2.30;;;28.10;96.40;;;;;;5041710;28;20355;-86
2021/07/20 10:39:48;;;;;;;3.50;1.98;;;28.50;95.80;;;;;;5035044;28;20267;-87
2021/07/20 10:42:25;;;;;;;3.88;2.45;;;28.60;96.30;;;;;;5050929;28;20301;-89
2021/07/20 10:45:13;;;;;;;3.65;2.33;;;28.90;96.20;;;;;;5041537;28;20206;-87
2021/07/20 10:47:51;;;;;;;5.45;2.80;;;29.40;95.60;;;;;;5063017;28;20255;-86
2021/07/20 10:50:47;;;;;;;4.13;2.47;;;30.50;95.60;;;;;;5043139;28;20244;-87
2021/07/20 10:53:37;;;;;;;5.32;2.22;;;30.40;94.40;;;;;;5041250;28;20225;-86
2021/07/20 10:56:10;;;;;;;4.53;2.20;;;28.90;95.30;;;;;;5052898;28;20328;-87
2021/07/20 10:58:44;;;;;;;4.45;2.78;;;29.00;95.70;;;;;;5058070;28;21293;-86
2021/07/20 11:01:18;;;;;;;3.35;1.90;;;28.70;95.80;;;;;;5052465;28;20665;-88
2021/07/20 11:03:59;;;;;;;3.85;2.00;;;28.60;95.10;;;;;;5040264;28;20276;-87
2021/07/20 11:06:26;;;;;;;2.50;1.90;;;28.20;96.60;;;;;;5042605;28;20190;-85
2021/07/20 11:08:59;;;;;;;3.00;2.60;;;28.90;95.70;;;;;;5024132;28;20263;-92
2021/07/20 11:11:29;;;;;;;5.15;2.47;;;29.50;95.60;;;;;;5042485;28;20807;-87
2021/07/20 11:13:59;;;;;;;2.90;1.85;;;29.10;96.80;;;;;;5049463;28;20255;-87
2021/07/20 11:16:26;;;;;;;6.13;2.28;;;27.60;97.20;;;;;;5041425;28;20424;-87
2021/07/20 11:18:54;;;;;;;2.85;1.83;;;27.50;97.60;;;;;;5042729;28;20245;-88
2021/07/20 11:21:24;;;;;;;7.03;2.25;;;28.00;97.80;;;;;;5025641;28;20190;-87
2021/07/20 11:23:52;;;;;;;4.85;2.20;;;27.90;97.20;;;;;;5043044;28;20178;-90
2021/07/20 11:26:20;;;;;;;4.22;2.30;;;28.10;97.40;;;;;;5048979;28;20249;-86
2021/07/20 11:28:47;;;;;;;3.13;2.38;;;28.00;98.00;;;;;;5041125;28;20241;-87
2021/07/20 11:31:19;;;;;;;5.00;2.20;;;28.60;97.40;;;;;;5031102;28;20283;-87
2021/07/20 11:33:49;;;;;;;2.97;2.00;;;29.30;97.60;;;;;;5041065;28;20218;-91
2021/07/20 11:36:21;;;;;;;2.90;2.38;;;28.80;96.20;;;;;;5042287;28;20198;-90
2021/07/20 11:38:50;;;;;;;3.17;2.17;;;28.50;96.80;;;;;;5031911;28;20742;-86
2021/07/20 11:41:21;;;;;;;4.53;2.45;;;28.00;96.70;;;;;;5051984;28;20249;-89
2021/07/20 11:43:50;;;;;;;3.47;2.10;;;27.70;97.90;;;;;;5044501;28;20237;-86
2021/07/20 11:46:22;;;;;;;5.10;2.13;;;27.00;98.40;;;;;;5041510;28;20232;-92
2021/07/20 11:49:04;;;;;;;3.22;2.30;;;25.20;99.90;;;;;;5047913;28;20229;-88
2021/07/20 11:51:39;;;;;;;3.50;2.60;;;25.50;99.90;;;;;;5040886;28;20241;-86
2021/07/20 11:54:12;;;;;;;3.45;2.53;;;25.70;99.90;;;;;;5041727;28;20764;-89
2021/07/20 11:56:59;;;;;;;4.28;2.00;;;25.50;99.90;;;;;;5038617;28;21232;-89
2021/07/20 11:59:52;;;;;;;4.25;2.60;;;25.90;99.90;;;;;;5056287;28;20232;-88
2021/07/20 12:02:43;;;;;;;1.90;1.70;;;26.70;99.90;;;;;;5039981;28;20217;-88
2021/07/20 12:05:36;;;;;;;4.07;2.33;;;26.50;99.90;;;;;;5031802;28;20229;-87
2021/07/20 12:08:34;;;;;;;5.18;2.20;;;26.00;99.90;;;;;;5048621;28;20313;-91
2021/07/20 12:11:25;;;;;;;4.78;2.47;;;26.00;99.90;;;;;;4995649;28;20282;-88
2021/07/20 12:13:51;;;;;;;6.18;2.30;;;25.90;99.90;;;;;;5046575;28;20217;-90
2021/07/20 12:16:17;;;;;;;3.67;1.90;;;25.80;99.90;;;;;;5051163;28;20267;-86
2021/07/20 12:18:54;;;;;;;3.13;2.13;;;25.90;99.90;;;;;;5047717;28;20250;-91
2021/07/20 12:21:22;;;;;;;2.75;2.10;;;26.10;99.90;;;;;;5032399;28;20190;-91
2021/07/20 12:23:54;;;;;;;2.83;2.00;;;25.20;99.90;;;;;;5065704;28;20646;-86
2021/07/20 12:26:22;;;;;;;3.28;2.05;;;24.90;99.90;;;;;;5033906;28;20670;-90
2021/07/20 12:28:49;;;;;;;2.33;2.10;;;24.60;99.90;;;;;;5030358;28;20214;-90
2021/07/20 12:31:16;;;;;;;2.72;2.10;;;24.50;99.90;;;;;;5031729;28;20287;-88
2021/07/20 12:33:47;;;;;;;3.85;2.28;;;24.90;99.90;;;;;;5015784;28;20237;-87
2021/07/20 12:36:14;;;;;;;3.20;2.70;;;25.30;99.90;;;;;;5030760;28;20330;-90
2021/07/20 12:38:43;;;;;;;4.07;2.58;;;25.20;99.90;;;;;;5050639;28;20185;-86
2021/07/20 12:41:12;;;;;;;4.57;2.78;;;25.10;99.90;;;;;;5059071;28;20299;-88
2021/07/20 12:43:45;;;;;;;2.58;1.95;;;24.90;99.90;;;;;;5050451;28;20287;-88
2021/07/20 12:46:14;;;;;;;3.33;2.08;;;25.10;99.90;;;;;;5049992;28;20248;-87
2021/07/20 12:48:51;;;;;;;4.63;2.20;;;25.10;99.90;;;;;;5051388;28;20225;-87
2021/07/20 12:51:19;;;;;;;2.35;1.80;;;25.00;99.90;;;;;;5048671;28;20200;-89
2021/07/20 12:53:49;;;;;;;2.83;2.10;;;25.20;99.90;;;;;;5050857;28;20778;-86
2021/07/20 12:56:20;;;;;;;4.03;2.15;;;25.10;99.90;;;;;;5047907;28;20303;-86
2021/07/20 12:58:49;;;;;;;3.33;1.98;;;24.80;99.90;;;;;;5049849;28;20221;-86
2021/07/20 13:01:16;;;;;;;3.88;2.17;;;24.80;99.90;;;;;;5050648;28;20224;-84
2021/07/20 13:03:45;;;;;;;3.50;2.55;;;24.70;99.90;;;;;;5036992;28;20245;-85
2021/07/20 13:06:16;;;;;;;4.22;2.50;;;24.50;99.90;;;;;;5037661;28;20244;-86
2021/07/20 13:08:50;;;;;;;4.20;2.05;;;24.90;99.90;;;;;;5035623;28;20201;-86
2021/07/20 13:11:16;;;;;;;2.53;1.98;;;25.10;99.90;;;;;;5054051;28;20697;-85